createdAt,value
2017-04-25T00:01:07.664Z,0
2017-04-25T00:02:17.699Z,0
2017-04-25T00:03:28.056Z,0
2017-04-25T00:04:38.394Z,0
2017-04-25T00:05:48.744Z,0
2017-04-25T00:06:59.082Z,0
2017-04-25T00:08:09.143Z,0
2017-04-25T00:09:19.479Z,0
2017-04-25T00:10:29.505Z,0
2017-04-25T00:11:39.849Z,0
2017-04-25T00:12:50.191Z,0
2017-04-25T00:14:00.547Z,0
2017-04-25T00:15:10.902Z,0
2017-04-25T00:16:21.255Z,0
2017-04-25T00:17:31.297Z,0
2017-04-25T00:18:41.036Z,0
2017-04-25T00:19:51.404Z,0
2017-04-25T00:21:01.772Z,0
2017-04-25T00:22:11.843Z,0
2017-04-25T00:23:22.186Z,0
2017-04-25T00:24:32.532Z,0
2017-04-25T00:25:42.897Z,0
2017-04-25T00:26:53.244Z,0
2017-04-25T00:28:03.596Z,0
2017-04-25T00:29:13.932Z,0
2017-04-25T00:30:23.955Z,0
2017-04-25T00:31:34.297Z,0
2017-04-25T00:32:44.319Z,0
2017-04-25T00:33:54.656Z,0
2017-04-25T00:35:05.011Z,0
2017-04-25T00:36:15.363Z,0
2017-04-25T00:37:25.692Z,0
2017-04-25T00:38:35.728Z,0
2017-04-25T00:39:46.080Z,0
2017-04-25T00:40:56.094Z,0
2017-04-25T00:42:06.431Z,0
2017-04-25T00:43:16.783Z,0
2017-04-25T00:44:26.804Z,0
2017-04-25T00:45:37.142Z,0
2017-04-25T00:46:47.479Z,0
2017-04-25T00:47:57.521Z,0
2017-04-25T00:49:07.899Z,0
2017-04-25T00:50:18.265Z,0
2017-04-25T00:51:28.601Z,0
2017-04-25T00:52:38.940Z,0
2017-04-25T00:53:48.980Z,0
2017-04-25T00:54:59.007Z,0
2017-04-25T00:56:09.363Z,0
2017-04-25T00:57:19.454Z,0
2017-04-25T00:58:29.801Z,0
2017-04-25T00:59:40.163Z,0
2017-04-25T01:00:50.190Z,0
2017-04-25T01:02:00.247Z,0
2017-04-25T01:03:10.279Z,0
2017-04-25T01:04:19.985Z,0
2017-04-25T01:05:30.327Z,0
2017-04-25T01:06:40.048Z,0
2017-04-25T01:07:50.394Z,0
2017-04-25T01:09:00.432Z,0
2017-04-25T01:10:10.760Z,0
2017-04-25T01:11:21.102Z,0
2017-04-25T01:12:31.448Z,0
2017-04-25T01:13:41.789Z,0
2017-04-25T01:14:52.136Z,0
2017-04-25T01:16:02.507Z,0
2017-04-25T01:17:12.844Z,0
2017-04-25T01:18:23.202Z,0
2017-04-25T01:19:33.549Z,0
2017-04-25T01:20:43.586Z,0
2017-04-25T01:21:53.615Z,0
2017-04-25T01:23:03.975Z,0
2017-04-25T01:24:14.014Z,0
2017-04-25T01:25:24.353Z,0
2017-04-25T01:26:34.382Z,0
2017-04-25T01:27:44.441Z,0
2017-04-25T01:28:54.473Z,0
2017-04-25T01:30:04.856Z,0
2017-04-25T01:31:15.225Z,0
2017-04-25T01:32:25.587Z,0
2017-04-25T01:33:35.608Z,0
2017-04-25T01:34:45.992Z,0
2017-04-25T01:35:56.327Z,0
2017-04-25T01:37:06.660Z,0
2017-04-25T01:38:16.688Z,0
2017-04-25T01:39:27.035Z,0
2017-04-25T01:40:37.374Z,0
2017-04-25T01:41:47.720Z,0
2017-04-25T01:42:58.082Z,0
2017-04-25T01:44:08.430Z,0
2017-04-25T01:45:18.781Z,0
2017-04-25T01:46:29.149Z,0
2017-04-25T01:47:39.497Z,0
2017-04-25T01:48:49.532Z,0
2017-04-25T01:49:59.870Z,0
2017-04-25T01:51:10.224Z,0
2017-04-25T01:52:20.256Z,0
2017-04-25T01:53:30.608Z,0
2017-04-25T01:54:40.995Z,0
2017-04-25T01:55:51.009Z,0
2017-04-25T01:57:01.057Z,0
2017-04-25T01:58:11.399Z,0
2017-04-25T01:59:21.122Z,0
2017-04-25T02:00:31.510Z,0
2017-04-25T02:01:41.849Z,0
2017-04-25T02:02:52.193Z,0
2017-04-25T02:04:02.548Z,0
2017-04-25T02:05:12.566Z,0
2017-04-25T02:06:22.901Z,0
2017-04-25T02:07:33.253Z,0
2017-04-25T02:08:43.602Z,0
2017-04-25T02:09:53.642Z,0
2017-04-25T02:11:03.673Z,0
2017-04-25T02:12:14.017Z,0
2017-04-25T02:13:24.376Z,0
2017-04-25T02:14:34.734Z,0
2017-04-25T02:15:45.070Z,0
2017-04-25T02:16:55.416Z,0
2017-04-25T02:18:05.771Z,0
2017-04-25T02:19:16.141Z,0
2017-04-25T02:20:26.471Z,0
2017-04-25T02:21:36.259Z,0
2017-04-25T02:22:46.282Z,0
2017-04-25T02:23:56.326Z,0
2017-04-25T02:25:06.698Z,0
2017-04-25T02:26:16.445Z,0
2017-04-25T02:27:26.491Z,0
2017-04-25T02:28:36.849Z,0
2017-04-25T02:29:47.240Z,0
2017-04-25T02:30:57.582Z,0
2017-04-25T02:32:07.591Z,0
2017-04-25T02:33:17.612Z,0
2017-04-25T02:34:28.028Z,0
2017-04-25T02:35:38.370Z,0
2017-04-25T02:36:48.691Z,0
2017-04-25T02:37:59.047Z,0
2017-04-25T02:39:09.081Z,0
2017-04-25T02:40:19.419Z,0
2017-04-25T02:41:29.777Z,0
2017-04-25T02:42:39.819Z,0
2017-04-25T02:43:50.161Z,0
2017-04-25T02:45:00.507Z,0
2017-04-25T02:46:10.571Z,0
2017-04-25T02:47:20.911Z,0
2017-04-25T02:48:31.254Z,0
2017-04-25T02:49:41.279Z,0
2017-04-25T02:50:51.621Z,0
2017-04-25T02:52:01.660Z,0
2017-04-25T02:53:12.005Z,0
2017-04-25T02:54:22.034Z,0
2017-04-25T02:55:31.760Z,0
2017-04-25T02:56:42.111Z,0
2017-04-25T02:57:52.143Z,0
2017-04-25T02:59:02.523Z,0
2017-04-25T03:00:12.556Z,0
2017-04-25T03:01:22.906Z,0
2017-04-25T03:32:38.059Z,0
2017-04-25T03:33:48.385Z,0
2017-04-25T03:34:58.728Z,0
2017-04-25T03:36:09.095Z,0
2017-04-25T03:37:19.425Z,0
2017-04-25T03:38:29.767Z,0
2017-04-25T03:39:39.798Z,0
2017-04-25T03:40:50.138Z,0
2017-04-25T03:42:00.487Z,0
2017-04-25T03:43:10.830Z,0
2017-04-25T03:44:21.177Z,0
2017-04-25T03:45:31.553Z,5
2017-04-25T03:46:41.939Z,5
2017-04-25T03:47:52.282Z,5
2017-04-25T03:49:02.617Z,5
2017-04-25T03:50:13.017Z,5
2017-04-25T03:51:23.395Z,5
2017-04-25T03:52:33.963Z,10
2017-04-25T03:53:44.310Z,10
2017-04-25T03:54:54.343Z,10
2017-04-25T03:56:04.703Z,10
2017-04-25T03:57:15.029Z,15
2017-04-25T03:58:24.751Z,15
2017-04-25T03:59:34.784Z,15
2017-04-25T04:00:45.130Z,15
2017-04-25T04:01:54.862Z,15
2017-04-25T04:03:05.201Z,20
2017-04-25T04:04:15.541Z,20
2017-04-25T04:05:25.581Z,20
2017-04-25T04:06:35.923Z,20
2017-04-25T04:07:46.342Z,25
2017-04-25T04:08:56.397Z,25
2017-04-25T04:10:06.443Z,25
2017-04-25T04:11:16.776Z,25
2017-04-25T04:12:27.153Z,30
2017-04-25T04:13:37.189Z,30
2017-04-25T04:14:47.531Z,35
2017-04-25T04:15:57.877Z,35
2017-04-25T04:17:08.206Z,40
2017-04-25T04:18:18.546Z,45
2017-04-25T04:19:28.567Z,45
2017-04-25T04:20:38.914Z,45
2017-04-25T04:21:49.256Z,50
2017-04-25T04:22:59.614Z,55
2017-04-25T04:24:09.941Z,60
2017-04-25T04:25:20.273Z,75
2017-04-25T04:26:30.634Z,75
2017-04-25T04:27:40.986Z,95
2017-04-25T04:28:51.325Z,130
2017-04-25T04:30:01.687Z,145
2017-04-25T04:31:12.028Z,150
2017-04-25T04:32:22.370Z,150
2017-04-25T04:33:32.415Z,155
2017-04-25T04:34:42.764Z,170
2017-04-25T04:35:53.136Z,170
2017-04-25T04:37:03.478Z,175
2017-04-25T04:38:13.513Z,180
2017-04-25T04:39:23.236Z,185
2017-04-25T04:40:33.578Z,200
2017-04-25T04:41:44.171Z,200
2017-04-25T04:42:54.241Z,205
2017-04-25T04:44:04.573Z,210
2017-04-25T04:45:14.944Z,215
2017-04-25T04:46:24.983Z,225
2017-04-25T04:47:35.337Z,215
2017-04-25T04:48:45.715Z,220
2017-04-25T04:49:55.750Z,220
2017-04-25T04:51:05.803Z,235
2017-04-25T04:52:16.149Z,220
2017-04-25T04:53:26.182Z,225
2017-04-25T04:54:35.911Z,225
2017-04-25T04:55:46.260Z,225
2017-04-25T04:56:56.595Z,245
2017-04-25T04:58:06.929Z,240
2017-04-25T04:59:16.957Z,245
2017-04-25T05:00:27.307Z,250
2017-04-25T05:01:37.644Z,250
2017-04-25T05:02:47.993Z,250
2017-04-25T05:03:58.047Z,250
2017-04-25T05:05:08.390Z,250
2017-04-25T05:06:18.416Z,250
2017-04-25T05:07:28.772Z,250
2017-04-25T05:08:38.825Z,250
2017-04-25T05:09:48.874Z,250
2017-04-25T05:10:59.224Z,255
2017-04-25T05:12:09.575Z,265
2017-04-25T05:13:19.610Z,265
2017-04-25T05:14:28.999Z,265
2017-04-25T05:15:39.365Z,265
2017-04-25T05:16:49.396Z,265
2017-04-25T05:17:59.439Z,275
2017-04-25T05:19:09.817Z,265
2017-04-25T05:20:20.162Z,265
2017-04-25T05:21:30.532Z,265
2017-04-25T05:22:40.890Z,275
2017-04-25T05:23:51.270Z,275
2017-04-25T05:25:01.323Z,275
2017-04-25T05:26:11.667Z,280
2017-04-25T05:27:21.404Z,285
2017-04-25T05:28:31.457Z,295
2017-04-25T05:29:41.795Z,295
2017-04-25T05:30:52.138Z,295
2017-04-25T05:32:02.519Z,305
2017-04-25T05:33:12.251Z,305
2017-04-25T05:34:22.598Z,310
2017-04-25T05:35:32.935Z,310
2017-04-25T05:36:43.291Z,305
2017-04-25T05:37:53.640Z,310
2017-04-25T05:39:03.675Z,310
2017-04-25T05:40:14.022Z,315
2017-04-25T05:41:24.426Z,310
2017-04-25T05:42:34.473Z,305
2017-04-25T05:43:44.816Z,295
2017-04-25T05:44:55.178Z,285
2017-04-25T05:46:05.229Z,240
2017-04-25T05:47:15.578Z,175
2017-04-25T05:48:25.929Z,155
2017-04-25T05:49:35.967Z,155
2017-04-25T05:50:46.307Z,165
2017-04-25T05:51:56.658Z,160
2017-04-25T05:53:06.712Z,160
2017-04-25T05:54:17.033Z,160
2017-04-25T05:55:27.390Z,160
2017-04-25T05:56:37.756Z,160
2017-04-25T05:57:48.096Z,165
2017-04-25T05:58:58.120Z,180
2017-04-25T06:00:08.466Z,170
2017-04-25T06:01:18.509Z,165
2017-04-25T06:02:28.865Z,165
2017-04-25T06:03:38.911Z,165
2017-04-25T06:04:48.338Z,165
2017-04-25T06:05:58.683Z,165
2017-04-25T06:07:08.711Z,165
2017-04-25T06:08:18.748Z,170
2017-04-25T06:09:29.096Z,170
2017-04-25T06:10:39.448Z,170
2017-04-25T06:12:08.988Z,170
2017-04-25T06:13:19.060Z,175
2017-04-25T06:14:29.469Z,175
2017-04-25T06:15:39.813Z,180
2017-04-25T06:16:50.169Z,180
2017-04-25T06:17:59.878Z,180
2017-04-25T06:19:09.925Z,180
2017-04-25T06:20:20.272Z,180
2017-04-25T06:21:30.615Z,185
2017-04-25T06:22:40.959Z,185
2017-04-25T06:23:51.300Z,190
2017-04-25T06:25:01.649Z,190
2017-04-25T06:26:11.702Z,195
2017-04-25T06:27:21.733Z,200
2017-04-25T06:28:31.472Z,200
2017-04-25T06:29:41.512Z,200
2017-04-25T06:30:51.856Z,200
2017-04-25T06:32:02.226Z,200
2017-04-25T06:33:11.649Z,200
2017-04-25T06:34:21.986Z,195
2017-04-25T06:35:32.339Z,190
2017-04-25T06:36:42.697Z,200
2017-04-25T06:37:52.749Z,200
2017-04-25T06:39:03.102Z,190
2017-04-25T06:40:13.440Z,195
2017-04-25T06:41:23.463Z,195
2017-04-25T06:42:34.064Z,195
2017-04-25T06:43:44.411Z,195
2017-04-25T06:44:54.771Z,195
2017-04-25T06:46:04.797Z,195
2017-04-25T06:47:14.782Z,195
2017-04-25T06:48:24.826Z,200
2017-04-25T06:49:35.175Z,200
2017-04-25T06:50:45.228Z,200
2017-04-25T06:51:55.586Z,205
2017-04-25T06:53:05.655Z,200
2017-04-25T06:54:16.029Z,200
2017-04-25T06:55:26.067Z,205
2017-04-25T06:56:36.155Z,200
2017-04-25T06:57:46.516Z,200
2017-04-25T06:58:56.871Z,205
2017-04-25T07:00:07.213Z,205
2017-04-25T07:01:17.555Z,205
2017-04-25T07:02:27.933Z,210
2017-04-25T07:03:37.655Z,205
2017-04-25T07:04:48.012Z,200
2017-04-25T07:05:58.355Z,200
2017-04-25T07:07:08.723Z,200
2017-04-25T07:08:19.067Z,195
2017-04-25T07:09:29.404Z,195
2017-04-25T07:10:39.765Z,190
2017-04-25T07:11:49.819Z,190
2017-04-25T07:13:00.175Z,190
2017-04-25T07:14:10.188Z,190
2017-04-25T07:15:20.528Z,190
2017-04-25T07:16:29.941Z,195
2017-04-25T07:17:40.304Z,195
2017-04-25T07:18:50.379Z,190
2017-04-25T07:20:00.718Z,195
2017-04-25T07:21:10.759Z,195
2017-04-25T07:22:21.107Z,195
2017-04-25T07:23:31.453Z,195
2017-04-25T07:24:41.812Z,195
2017-04-25T07:25:52.156Z,190
2017-04-25T07:27:02.512Z,195
2017-04-25T07:28:12.865Z,195
2017-04-25T07:29:22.898Z,200
2017-04-25T07:30:33.248Z,200
2017-04-25T07:31:43.291Z,200
2017-04-25T07:32:53.656Z,200
2017-04-25T07:34:03.993Z,205
2017-04-25T07:35:14.338Z,205
2017-04-25T07:36:24.381Z,205
2017-04-25T07:37:34.748Z,210
2017-04-25T07:38:45.100Z,205
2017-04-25T07:39:55.426Z,205
2017-04-25T07:41:05.450Z,205
2017-04-25T07:42:15.811Z,205
2017-04-25T07:43:25.839Z,205
2017-04-25T07:44:36.214Z,205
2017-04-25T07:45:46.558Z,215
2017-04-25T07:46:56.576Z,210
2017-04-25T07:48:06.933Z,215
2017-04-25T07:49:17.279Z,215
2017-04-25T07:50:27.618Z,215
2017-04-25T07:51:37.668Z,220
2017-04-25T07:52:47.705Z,220
2017-04-25T07:53:58.039Z,220
2017-04-25T07:55:08.393Z,225
2017-04-25T07:56:18.733Z,225
2017-04-25T07:57:29.083Z,225
2017-04-25T07:58:39.455Z,225
2017-04-25T07:59:49.800Z,225
2017-04-25T08:00:59.519Z,230
2017-04-25T08:02:09.862Z,230
2017-04-25T08:03:20.225Z,235
2017-04-25T08:04:30.589Z,235
2017-04-25T08:05:40.608Z,235
2017-04-25T08:06:50.658Z,235
2017-04-25T08:08:00.701Z,240
2017-04-25T08:09:11.080Z,245
2017-04-25T08:10:21.110Z,245
2017-04-25T08:11:30.827Z,245
2017-04-25T08:12:41.221Z,250
2017-04-25T08:13:50.633Z,250
2017-04-25T08:15:00.999Z,250
2017-04-25T08:16:11.359Z,255
2017-04-25T08:17:21.698Z,265
2017-04-25T08:18:32.038Z,260
2017-04-25T08:19:42.377Z,260
2017-04-25T08:20:52.421Z,265
2017-04-25T08:22:03.033Z,270
2017-04-25T08:23:13.386Z,275
2017-04-25T08:24:23.740Z,275
2017-04-25T08:25:34.075Z,275
2017-04-25T08:26:44.423Z,275
2017-04-25T08:27:54.806Z,280
2017-04-25T08:29:05.172Z,280
2017-04-25T08:30:15.551Z,285
2017-04-25T08:31:25.631Z,280
2017-04-25T08:32:36.016Z,280
2017-04-25T08:33:46.362Z,270
2017-04-25T08:34:56.092Z,285
2017-04-25T08:36:06.131Z,285
2017-04-25T08:37:16.494Z,285
2017-04-25T08:38:26.558Z,290
2017-04-25T08:39:36.909Z,285
2017-04-25T08:40:47.282Z,280
2017-04-25T08:41:57.007Z,275
2017-04-25T08:43:07.374Z,265
2017-04-25T08:44:17.441Z,280
2017-04-25T08:45:27.792Z,275
2017-04-25T08:46:38.135Z,270
2017-04-25T08:47:48.491Z,275
2017-04-25T08:48:58.852Z,295
2017-04-25T08:50:09.209Z,290
2017-04-25T08:51:19.557Z,270
2017-04-25T08:52:29.915Z,280
2017-04-25T08:53:40.283Z,300
2017-04-25T08:54:50.312Z,295
2017-04-25T08:56:00.385Z,295
2017-04-25T08:57:10.750Z,290
2017-04-25T08:58:20.817Z,295
2017-04-25T08:59:30.865Z,285
2017-04-25T09:00:40.907Z,285
2017-04-25T09:01:51.257Z,275
2017-04-25T09:03:01.294Z,270
2017-04-25T09:04:11.342Z,260
2017-04-25T09:05:21.689Z,260
2017-04-25T09:06:32.030Z,230
2017-04-25T09:07:42.086Z,250
2017-04-25T09:08:51.515Z,250
2017-04-25T09:10:01.574Z,260
2017-04-25T09:11:11.943Z,250
2017-04-25T09:12:22.318Z,250
2017-04-25T09:13:32.692Z,255
2017-04-25T09:14:43.047Z,250
2017-04-25T09:15:53.096Z,255
2017-04-25T09:17:03.139Z,255
2017-04-25T09:18:13.493Z,255
2017-04-25T09:19:23.533Z,250
2017-04-25T09:20:33.881Z,250
2017-04-25T09:21:43.607Z,250
2017-04-25T09:22:53.955Z,245
2017-04-25T09:24:03.999Z,230
2017-04-25T09:25:14.344Z,245
2017-04-25T09:26:24.058Z,255
2017-04-25T09:27:34.412Z,255
2017-04-25T09:28:44.778Z,250
2017-04-25T09:29:54.493Z,250
2017-04-25T09:31:04.849Z,240
2017-04-25T09:32:14.898Z,245
2017-04-25T09:33:24.624Z,245
2017-04-25T09:34:34.998Z,240
2017-04-25T09:35:45.360Z,240
2017-04-25T09:36:55.390Z,245
2017-04-25T09:38:05.737Z,245
2017-04-25T09:39:16.105Z,245
2017-04-25T09:40:26.465Z,235
2017-04-25T09:41:36.812Z,245
2017-04-25T09:42:46.848Z,250
2017-04-25T09:43:56.570Z,250
2017-04-25T09:45:06.927Z,250
2017-04-25T09:46:17.268Z,250
2017-04-25T09:47:27.623Z,250
2017-04-25T09:48:37.676Z,245
2017-04-25T09:49:47.413Z,250
2017-04-25T09:50:57.763Z,255
2017-04-25T09:52:08.137Z,255
2017-04-25T09:53:18.296Z,250
2017-04-25T09:54:28.631Z,255
2017-04-25T09:55:38.683Z,250
2017-04-25T09:56:49.045Z,250
2017-04-25T09:57:59.405Z,250
2017-04-25T09:59:09.446Z,250
2017-04-25T10:00:19.483Z,255
2017-04-25T10:01:29.527Z,255
2017-04-25T10:02:39.887Z,255
2017-04-25T10:03:50.238Z,255
2017-04-25T10:05:00.605Z,260
2017-04-25T10:06:10.987Z,260
2017-04-25T10:07:21.028Z,255
2017-04-25T10:08:31.390Z,230
2017-04-25T10:09:41.758Z,250
2017-04-25T10:10:53.743Z,260
2017-04-25T10:12:03.789Z,250
2017-04-25T10:13:14.191Z,260
2017-04-25T10:14:24.278Z,260
2017-04-25T10:15:34.708Z,260
2017-04-25T10:16:44.782Z,265
2017-04-25T10:17:55.177Z,260
2017-04-25T10:19:06.737Z,265
2017-04-25T10:20:17.745Z,260
2017-04-25T10:21:28.764Z,275
2017-04-25T10:22:40.621Z,270
2017-04-25T10:23:52.478Z,275
2017-04-25T10:25:04.430Z,275
2017-04-25T10:26:15.926Z,270
2017-04-25T10:27:26.484Z,260
2017-04-25T10:28:36.852Z,195
2017-04-25T10:29:48.496Z,265
2017-04-25T10:30:59.192Z,235
2017-04-25T10:32:09.245Z,270
2017-04-25T10:33:19.605Z,270
2017-04-25T10:34:29.661Z,265
2017-04-25T10:35:40.020Z,250
2017-04-25T10:36:50.373Z,260
2017-04-25T10:38:00.422Z,255
2017-04-25T10:39:10.811Z,260
2017-04-25T10:40:21.197Z,260
2017-04-25T10:41:31.228Z,255
2017-04-25T10:42:41.595Z,255
2017-04-25T10:43:51.972Z,265
2017-04-25T10:45:02.387Z,275
2017-04-25T10:46:12.757Z,280
2017-04-25T10:47:22.810Z,285
2017-04-25T10:48:33.162Z,285
2017-04-25T10:49:43.565Z,285
2017-04-25T10:50:54.014Z,290
2017-04-25T10:52:04.073Z,290
2017-04-25T10:53:14.371Z,295
2017-04-25T10:54:24.442Z,295
2017-04-25T10:55:34.499Z,285
2017-04-25T10:56:44.640Z,295
2017-04-25T10:57:55.031Z,290
2017-04-25T10:59:05.420Z,290
2017-04-25T11:00:15.844Z,285
2017-04-25T11:01:26.230Z,285
2017-04-25T11:02:36.321Z,290
2017-04-25T11:03:46.380Z,280
2017-04-25T11:04:56.769Z,265
2017-04-25T11:06:07.148Z,270
2017-04-25T11:07:17.545Z,270
2017-04-25T11:08:27.923Z,260
2017-04-25T11:09:37.988Z,260
2017-04-25T11:10:48.398Z,260
2017-04-25T11:11:58.471Z,270
2017-04-25T11:13:08.532Z,285
2017-04-25T11:14:18.657Z,290
2017-04-25T11:15:28.716Z,285
2017-04-25T11:16:39.104Z,270
2017-04-25T11:17:49.213Z,280
2017-04-25T11:18:59.606Z,280
2017-04-25T11:20:10.001Z,280
2017-04-25T11:21:20.381Z,275
2017-04-25T11:22:30.833Z,275
2017-04-25T11:23:40.917Z,280
2017-04-25T11:24:51.294Z,280
2017-04-25T11:26:01.685Z,280
2017-04-25T11:27:12.080Z,275
2017-04-25T11:28:22.190Z,270
2017-04-25T11:29:32.599Z,270
2017-04-25T11:30:42.969Z,280
2017-04-25T11:31:53.351Z,275
2017-04-25T11:33:03.429Z,275
2017-04-25T11:34:13.814Z,270
2017-04-25T11:35:24.202Z,270
2017-04-25T11:36:34.596Z,275
2017-04-25T11:37:44.997Z,270
2017-04-25T11:38:55.431Z,270
2017-04-25T11:40:05.828Z,270
2017-04-25T11:41:16.216Z,270
2017-04-25T11:42:26.592Z,270
2017-04-25T11:43:36.982Z,280
2017-04-25T11:44:47.034Z,270
2017-04-25T11:45:57.373Z,275
2017-04-25T11:47:07.756Z,270
2017-04-25T11:48:18.118Z,270
2017-04-25T11:49:28.152Z,270
2017-04-25T11:50:38.517Z,270
2017-04-25T11:51:48.860Z,270
2017-04-25T11:52:58.899Z,270
2017-04-25T11:54:08.966Z,270
2017-04-25T11:55:19.357Z,275
2017-04-25T11:56:29.705Z,275
2017-04-25T11:57:40.060Z,270
2017-04-25T11:58:50.093Z,275
2017-04-25T12:00:00.145Z,275
2017-04-25T12:01:10.513Z,270
2017-04-25T12:02:20.568Z,270
2017-04-25T12:03:30.615Z,270
2017-04-25T12:04:40.654Z,275
2017-04-25T12:05:50.688Z,275
2017-04-25T12:07:01.092Z,275
2017-04-25T12:08:11.150Z,275
2017-04-25T12:09:21.198Z,275
2017-04-25T12:10:31.554Z,280
2017-04-25T12:11:41.602Z,280
2017-04-25T12:12:51.709Z,285
2017-04-25T12:14:01.775Z,275
2017-04-25T12:15:12.125Z,275
2017-04-25T12:16:22.206Z,275
2017-04-25T12:17:32.601Z,275
2017-04-25T12:18:42.951Z,270
2017-04-25T12:19:53.345Z,270
2017-04-25T12:21:03.718Z,275
2017-04-25T12:22:14.067Z,275
2017-04-25T12:23:24.114Z,280
2017-04-25T12:24:34.180Z,285
2017-04-25T12:25:44.545Z,280
2017-04-25T12:26:54.910Z,275
2017-04-25T12:28:04.973Z,280
2017-04-25T12:29:14.713Z,275
2017-04-25T12:30:24.804Z,220
2017-04-25T12:31:35.152Z,250
2017-04-25T12:32:45.205Z,285
2017-04-25T12:33:55.579Z,290
2017-04-25T12:35:05.940Z,315
2017-04-25T12:36:15.985Z,325
2017-04-25T12:37:26.017Z,340
2017-04-25T12:38:36.079Z,350
2017-04-25T12:39:46.458Z,360
2017-04-25T12:40:56.821Z,290
2017-04-25T12:42:07.198Z,350
2017-04-25T12:43:17.557Z,380
2017-04-25T12:44:27.601Z,380
2017-04-25T12:45:37.956Z,370
2017-04-25T12:46:47.996Z,305
2017-04-25T12:47:58.362Z,310
2017-04-25T12:49:08.723Z,370
2017-04-25T12:50:19.084Z,370
2017-04-25T12:51:29.135Z,320
2017-04-25T12:52:39.497Z,285
2017-04-25T12:53:49.245Z,360
2017-04-25T12:54:59.615Z,280
2017-04-25T12:56:09.653Z,370
2017-04-25T12:57:20.004Z,375
2017-04-25T12:58:30.385Z,365
2017-04-25T12:59:40.812Z,360
2017-04-25T13:00:51.178Z,310
2017-04-25T13:02:01.236Z,285
2017-04-25T13:03:11.601Z,300
2017-04-25T13:04:21.674Z,340
2017-04-25T13:05:32.029Z,370
2017-04-25T13:06:42.404Z,360
2017-04-25T13:07:52.782Z,355
2017-04-25T13:09:02.843Z,340
2017-04-25T13:10:13.190Z,330
2017-04-25T13:11:22.933Z,320
2017-04-25T13:12:33.297Z,305
2017-04-25T13:13:43.354Z,290
2017-04-25T13:14:53.090Z,285
2017-04-25T13:16:03.456Z,255
2017-04-25T13:17:13.823Z,275
2017-04-25T13:18:24.193Z,200
2017-04-25T13:19:34.542Z,215
2017-04-25T13:20:44.903Z,265
2017-04-25T13:21:55.245Z,215
2017-04-25T13:23:05.597Z,290
2017-04-25T13:24:16.005Z,280
2017-04-25T13:25:26.350Z,235
2017-04-25T13:26:36.397Z,310
2017-04-25T13:27:46.763Z,330
2017-04-25T13:28:56.810Z,350
2017-04-25T13:30:06.868Z,355
2017-04-25T13:31:17.224Z,350
2017-04-25T13:32:27.269Z,345
2017-04-25T13:33:37.003Z,335
2017-04-25T13:34:47.047Z,330
2017-04-25T13:35:57.081Z,280
2017-04-25T13:37:07.431Z,315
2017-04-25T13:38:17.780Z,315
2017-04-25T13:39:28.161Z,295
2017-04-25T13:40:38.538Z,285
2017-04-25T13:41:48.909Z,285
2017-04-25T13:42:59.266Z,285
2017-04-25T13:44:09.618Z,285
2017-04-25T13:45:19.670Z,285
2017-04-25T13:46:29.737Z,280
2017-04-25T13:47:40.094Z,265
2017-04-25T13:48:50.134Z,210
2017-04-25T13:50:00.502Z,195
2017-04-25T13:51:10.856Z,190
2017-04-25T13:52:21.208Z,230
2017-04-25T13:53:31.586Z,250
2017-04-25T13:54:41.972Z,215
2017-04-25T13:55:52.020Z,205
2017-04-25T13:57:02.376Z,200
2017-04-25T13:58:12.988Z,195
2017-04-25T13:59:23.035Z,220
2017-04-25T14:00:33.080Z,250
2017-04-25T14:01:43.433Z,260
2017-04-25T14:02:53.855Z,255
2017-04-25T14:04:04.212Z,240
2017-04-25T14:05:14.557Z,225
2017-04-25T14:06:24.925Z,170
2017-04-25T14:07:35.293Z,235
2017-04-25T14:08:45.397Z,200
2017-04-25T14:09:55.467Z,235
2017-04-25T14:11:05.536Z,235
2017-04-25T14:12:15.914Z,230
2017-04-25T14:13:25.971Z,230
2017-04-25T14:14:36.354Z,230
2017-04-25T14:15:46.424Z,230
2017-04-25T14:16:56.787Z,225
2017-04-25T14:18:06.864Z,225
2017-04-25T14:19:16.587Z,225
2017-04-25T14:20:26.965Z,225
2017-04-25T14:21:37.012Z,225
2017-04-25T14:22:47.370Z,220
2017-04-25T14:23:57.129Z,215
2017-04-25T14:25:07.524Z,215
2017-04-25T14:26:17.601Z,205
2017-04-25T14:27:27.998Z,165
2017-04-25T14:28:38.072Z,200
2017-04-25T14:29:48.456Z,165
2017-04-25T14:30:58.836Z,150
2017-04-25T14:32:09.211Z,155
2017-04-25T14:33:19.590Z,185
2017-04-25T14:34:29.647Z,215
2017-04-25T14:35:40.013Z,250
2017-04-25T14:36:50.382Z,185
2017-04-25T14:38:00.753Z,175
2017-04-25T14:39:10.828Z,170
2017-04-25T14:40:21.187Z,180
2017-04-25T14:41:31.234Z,225
2017-04-25T14:42:41.290Z,220
2017-04-25T14:43:51.350Z,240
2017-04-25T14:45:01.693Z,220
2017-04-25T14:46:12.053Z,200
2017-04-25T14:47:22.420Z,215
2017-04-25T14:48:32.790Z,220
2017-04-25T14:49:43.149Z,200
2017-04-25T14:50:53.190Z,210
2017-04-25T14:52:03.224Z,195
2017-04-25T14:53:13.623Z,190
2017-04-25T14:54:23.676Z,190
2017-04-25T14:55:34.024Z,175
2017-04-25T14:56:44.064Z,165
2017-04-25T14:57:53.805Z,170
2017-04-25T14:59:04.171Z,160
2017-04-25T15:00:14.240Z,155
2017-04-25T15:01:24.607Z,155
2017-04-25T15:02:34.340Z,160
2017-04-25T15:03:44.706Z,190
2017-04-25T15:04:55.065Z,190
2017-04-25T15:06:05.127Z,190
2017-04-25T15:07:15.504Z,200
2017-04-25T15:08:25.243Z,195
2017-04-25T15:09:35.614Z,185
2017-04-25T15:10:45.651Z,185
2017-04-25T15:11:56.008Z,190
2017-04-25T15:13:06.395Z,195
2017-04-25T15:14:16.125Z,200
2017-04-25T15:15:26.179Z,195
2017-04-25T15:16:36.219Z,195
2017-04-25T15:17:46.602Z,190
2017-04-25T15:18:56.984Z,190
2017-04-25T15:20:07.343Z,195
2017-04-25T15:21:17.687Z,210
2017-04-25T15:22:28.038Z,210
2017-04-25T15:23:38.390Z,210
2017-04-25T15:24:48.433Z,215
2017-04-25T15:25:58.804Z,215
2017-04-25T15:27:09.163Z,210
2017-04-25T15:28:19.528Z,210
2017-04-25T15:29:29.578Z,200
2017-04-25T15:30:39.923Z,195
2017-04-25T15:31:50.285Z,190
2017-04-25T15:33:00.636Z,180
2017-04-25T15:34:10.996Z,170
2017-04-25T15:35:20.731Z,175
2017-04-25T15:36:31.092Z,165
2017-04-25T15:37:41.466Z,155
2017-04-25T15:38:51.502Z,140
2017-04-25T15:40:01.543Z,145
2017-04-25T15:41:11.597Z,140
2017-04-25T15:42:21.673Z,130
2017-04-25T15:43:31.737Z,130
2017-04-25T15:44:42.089Z,135
2017-04-25T15:45:52.442Z,135
2017-04-25T15:47:02.801Z,135
2017-04-25T15:48:13.156Z,150
2017-04-25T15:49:23.542Z,150
2017-04-25T15:50:32.980Z,145
2017-04-25T15:51:43.341Z,140
2017-04-25T15:52:53.749Z,130
2017-04-25T15:54:04.115Z,120
2017-04-25T15:55:14.231Z,115
2017-04-25T15:56:24.591Z,110
2017-04-25T15:57:34.696Z,110
2017-04-25T15:58:44.753Z,115
2017-04-25T15:59:54.796Z,115
2017-04-25T16:01:04.905Z,110
2017-04-25T16:02:14.640Z,110
2017-04-25T16:03:25.005Z,105
2017-04-25T16:04:35.407Z,100
2017-04-25T16:05:45.775Z,100
2017-04-25T16:06:56.136Z,105
2017-04-25T16:08:06.502Z,110
2017-04-25T16:09:16.862Z,125
2017-04-25T16:10:27.228Z,130
2017-04-25T16:11:37.280Z,140
2017-04-25T16:12:47.335Z,140
2017-04-25T16:13:57.697Z,150
2017-04-25T16:15:07.756Z,155
2017-04-25T16:16:18.118Z,160
2017-04-25T16:17:28.182Z,165
2017-04-25T16:18:38.552Z,170
2017-04-25T16:19:48.632Z,175
2017-04-25T16:20:58.983Z,175
2017-04-25T16:22:09.387Z,175
2017-04-25T16:23:19.750Z,175
2017-04-25T16:24:30.193Z,170
2017-04-25T16:25:40.552Z,165
2017-04-25T16:26:50.953Z,160
2017-04-25T16:28:01.309Z,150
2017-04-25T16:29:11.662Z,140
2017-04-25T16:30:22.068Z,135
2017-04-25T16:31:32.129Z,125
2017-04-25T16:32:41.868Z,115
2017-04-25T16:33:51.927Z,110
2017-04-25T16:35:02.308Z,105
2017-04-25T16:36:12.657Z,100
2017-04-25T16:37:23.034Z,95
2017-04-25T16:38:33.449Z,90
2017-04-25T16:39:43.809Z,80
2017-04-25T16:40:54.182Z,75
2017-04-25T16:42:04.564Z,75
2017-04-25T16:43:14.941Z,70
2017-04-25T16:44:25.330Z,70
2017-04-25T16:45:35.696Z,70
2017-04-25T16:46:46.067Z,65
2017-04-25T16:47:56.519Z,65
2017-04-25T16:49:06.886Z,65
2017-04-25T16:50:17.260Z,70
2017-04-25T16:51:27.616Z,70
2017-04-25T16:52:37.962Z,70
2017-04-25T16:53:48.369Z,70